createdAt,value
2023-02-19T00:00:13.363Z,28.88
2023-02-19T00:01:13.537Z,52.64
2023-02-19T00:02:14.040Z,37.20
2023-02-19T00:03:13.522Z,56.76
2023-02-19T00:04:13.702Z,36.00
2023-02-19T00:05:13.733Z,36.88
2023-02-19T00:06:13.935Z,42.20
2023-02-19T00:07:12.800Z,30.48
2023-02-19T00:08:13.822Z,48.56
2023-02-19T00:09:14.224Z,26.52
2023-02-19T00:10:13.558Z,59.64
2023-02-19T00:11:13.787Z,38.16
2023-02-19T00:12:14.080Z,34.92
2023-02-19T00:13:13.151Z,48.20
2023-02-19T00:14:13.086Z,50.81
2023-02-19T00:15:13.014Z,39.77
2023-02-19T00:16:12.915Z,30.52
2023-02-19T00:17:12.845Z,41.11
2023-02-19T00:18:13.895Z,43.12
2023-02-19T00:19:13.213Z,27.24
2023-02-19T00:20:13.412Z,25.44
2023-02-19T00:21:13.295Z,29.48
2023-02-19T00:22:13.309Z,33.28
2023-02-19T00:23:13.363Z,28.76
2023-02-19T00:24:13.313Z,29.56
2023-02-19T00:25:13.356Z,37.32
2023-02-19T00:26:18.633Z,28.48
2023-02-19T00:27:13.698Z,51.52
2023-02-19T00:28:14.051Z,42.80
2023-02-19T00:29:13.419Z,45.40
2023-02-19T00:30:13.735Z,32.92
2023-02-19T00:31:14.291Z,41.72
2023-02-19T00:32:13.526Z,33.84
2023-02-19T00:33:13.473Z,29.44
2023-02-19T00:34:13.552Z,41.64
2023-02-19T00:35:13.608Z,39.08
2023-02-19T00:36:14.331Z,39.04
2023-02-19T00:37:13.234Z,46.20
2023-02-19T00:38:13.400Z,29.68
2023-02-19T00:39:13.438Z,31.44
2023-02-19T00:40:18.381Z,43.64
2023-02-19T00:41:13.442Z,36.84
2023-02-19T00:42:13.503Z,35.00
2023-02-19T00:43:13.431Z,23.72
2023-02-19T00:44:13.559Z,19.64
2023-02-19T00:45:13.624Z,34.84
2023-02-19T00:46:13.825Z,36.92
2023-02-19T00:47:13.832Z,46.32
2023-02-19T00:48:13.674Z,34.76
2023-02-19T00:49:14.130Z,56.04
2023-02-19T00:50:13.165Z,53.44
2023-02-19T00:51:13.354Z,31.76
2023-02-19T00:52:13.671Z,39.24
2023-02-19T00:53:13.577Z,30.20
2023-02-19T00:54:13.536Z,18.28
2023-02-19T00:55:13.490Z,25.24
2023-02-19T00:56:13.527Z,26.36
2023-02-19T00:57:13.749Z,31.08
2023-02-19T00:58:13.795Z,28.56
2023-02-19T00:59:14.026Z,31.88
2023-02-19T01:00:12.976Z,28.60
2023-02-19T01:01:13.085Z,33.12
2023-02-19T01:02:12.927Z,35.24
2023-02-19T01:03:12.907Z,27.40
2023-02-19T01:04:12.852Z,28.08
2023-02-19T01:05:13.438Z,30.52
2023-02-19T01:06:13.340Z,22.92
2023-02-19T01:07:13.321Z,32.88
2023-02-19T01:08:13.691Z,15.16
2023-02-19T01:09:13.668Z,20.12
2023-02-19T01:10:13.769Z,21.08
2023-02-19T01:11:13.741Z,33.28
2023-02-19T01:12:13.701Z,27.16
2023-02-19T01:13:13.648Z,23.28
2023-02-19T01:14:13.914Z,19.20
2023-02-19T01:15:12.889Z,28.64
2023-02-19T01:16:12.965Z,19.16
2023-02-19T01:17:13.004Z,16.52
2023-02-19T01:18:12.835Z,25.52
2023-02-19T01:19:13.830Z,22.00
2023-02-19T01:20:13.729Z,27.40
2023-02-19T01:21:13.848Z,24.68
2023-02-19T01:22:13.821Z,28.48
2023-02-19T01:23:13.954Z,31.64
2023-02-19T01:24:13.134Z,43.32
2023-02-19T01:25:12.990Z,39.52
2023-02-19T01:26:13.040Z,25.88
2023-02-19T01:27:13.408Z,34.48
2023-02-19T01:28:13.474Z,44.16
2023-02-19T01:29:13.730Z,27.20
2023-02-19T01:30:13.815Z,40.40
2023-02-19T01:31:14.264Z,36.20
2023-02-19T01:32:13.657Z,40.44
2023-02-19T01:33:14.860Z,38.68
2023-02-19T01:34:14.016Z,38.16
2023-02-19T01:35:13.317Z,29.96
2023-02-19T01:36:13.258Z,40.48
2023-02-19T01:37:13.192Z,31.48
2023-02-19T01:38:13.261Z,35.92
2023-02-19T01:39:13.175Z,29.24
2023-02-19T01:40:13.119Z,35.92
2023-02-19T01:41:13.334Z,25.56
2023-02-19T01:42:13.206Z,55.48
2023-02-19T01:43:13.203Z,37.84
2023-02-19T01:44:13.134Z,36.68
2023-02-19T01:45:13.483Z,32.88
2023-02-19T01:46:13.915Z,20.76
2023-02-19T01:47:12.956Z,33.44
2023-02-19T01:48:13.108Z,42.76
2023-02-19T01:49:13.151Z,42.96
2023-02-19T01:50:13.009Z,33.36
2023-02-19T01:51:13.199Z,32.08
2023-02-19T01:52:13.390Z,21.80
2023-02-19T01:53:13.518Z,30.24
2023-02-19T01:54:13.668Z,22.48
2023-02-19T01:55:13.597Z,28.48
2023-02-19T01:56:13.670Z,37.00
2023-02-19T01:57:14.203Z,46.20
2023-02-19T01:58:13.213Z,25.24
2023-02-19T01:59:13.175Z,31.80
2023-02-19T02:00:13.466Z,25.40
2023-02-19T02:01:14.203Z,15.40
2023-02-19T02:02:13.328Z,17.04
2023-02-19T02:03:13.525Z,18.76
2023-02-19T02:04:13.497Z,14.24
2023-02-19T02:05:13.858Z,22.24
2023-02-19T02:06:13.758Z,18.92
2023-02-19T02:07:13.887Z,20.08
2023-02-19T02:08:12.960Z,24.88
2023-02-19T02:09:12.991Z,41.60
2023-02-19T02:10:12.847Z,30.44
2023-02-19T02:11:14.129Z,38.88
2023-02-19T02:12:13.379Z,24.28
2023-02-19T02:13:13.518Z,26.64
2023-02-19T02:14:13.448Z,22.08
2023-02-19T02:15:13.338Z,34.36
2023-02-19T02:16:13.518Z,27.00
2023-02-19T02:17:13.481Z,19.68
2023-02-19T02:18:13.662Z,25.08
2023-02-19T02:19:13.713Z,19.56
2023-02-19T02:20:13.550Z,12.04
2023-02-19T02:21:13.469Z,8.36
2023-02-19T02:22:13.945Z,20.04
2023-02-19T02:23:12.844Z,19.44
2023-02-19T02:24:13.770Z,21.12
2023-02-19T02:25:13.687Z,29.08
2023-02-19T02:26:13.566Z,18.88
2023-02-19T02:27:13.545Z,25.68
2023-02-19T02:28:13.416Z,16.44
2023-02-19T02:29:13.751Z,17.84
2023-02-19T02:30:14.013Z,16.40
2023-02-19T02:31:13.274Z,19.92
2023-02-19T02:32:13.670Z,11.52
2023-02-19T02:33:14.073Z,11.72
2023-02-19T02:34:12.968Z,14.00
2023-02-19T02:35:12.945Z,14.76
2023-02-19T02:36:13.218Z,17.12
2023-02-19T02:37:13.261Z,10.04
2023-02-19T02:38:13.178Z,20.36
2023-02-19T02:39:13.134Z,21.76
2023-02-19T02:40:13.202Z,17.88
2023-02-19T02:41:13.402Z,16.04
2023-02-19T02:42:13.592Z,17.28
2023-02-19T02:43:13.584Z,20.04
2023-02-19T02:44:13.523Z,23.12
2023-02-19T02:45:13.432Z,15.12
2023-02-19T02:46:13.329Z,24.12
2023-02-19T02:47:13.417Z,20.80
2023-02-19T02:48:13.344Z,25.12
2023-02-19T02:49:13.318Z,15.60
2023-02-19T02:50:13.312Z,20.64
2023-02-19T02:51:13.494Z,30.68
2023-02-19T02:52:13.490Z,24.76
2023-02-19T02:53:13.741Z,28.84
2023-02-19T02:54:13.840Z,38.24
2023-02-19T02:55:13.942Z,26.88
2023-02-19T02:56:12.848Z,28.20
2023-02-19T02:57:13.025Z,21.96
2023-02-19T02:58:14.322Z,22.20
2023-02-19T02:59:13.302Z,14.12
2023-02-19T03:00:13.483Z,17.36
2023-02-19T03:01:13.833Z,18.44
2023-02-19T03:02:13.209Z,14.88
2023-02-19T03:03:13.229Z,7.64
2023-02-19T03:04:13.149Z,11.24
2023-02-19T03:05:13.031Z,17.52
2023-02-19T03:06:12.976Z,19.00
2023-02-19T03:07:12.905Z,19.60
2023-02-19T03:08:13.020Z,10.44
2023-02-19T03:09:13.341Z,21.52
2023-02-19T03:10:13.583Z,23.96
2023-02-19T03:11:13.511Z,23.92
2023-02-19T03:12:13.690Z,18.64
2023-02-19T03:13:13.575Z,23.56
2023-02-19T03:14:13.781Z,16.64
2023-02-19T03:15:13.796Z,20.92
2023-02-19T03:16:13.755Z,17.80
2023-02-19T03:17:13.730Z,16.04
2023-02-19T03:18:13.918Z,20.88
2023-02-19T03:19:13.265Z,15.96
2023-02-19T03:20:13.299Z,20.04
2023-02-19T03:21:13.261Z,22.40
2023-02-19T03:22:13.230Z,22.44
2023-02-19T03:23:13.404Z,20.84
2023-02-19T03:24:13.360Z,20.96
2023-02-19T03:25:13.553Z,27.68
2023-02-19T03:26:15.273Z,20.80
2023-02-19T03:27:13.249Z,21.92
2023-02-19T03:28:13.388Z,19.92
2023-02-19T03:29:13.379Z,20.32
2023-02-19T03:30:13.343Z,16.80
2023-02-19T03:31:13.948Z,16.92
2023-02-19T03:32:13.161Z,13.40
2023-02-19T03:33:13.234Z,14.32
2023-02-19T03:34:13.213Z,15.72
2023-02-19T03:35:13.387Z,14.56
2023-02-19T03:36:13.278Z,20.60
2023-02-19T03:37:13.292Z,23.12
2023-02-19T03:38:13.164Z,17.12
2023-02-19T03:39:13.014Z,14.76
2023-02-19T03:40:13.298Z,21.28
2023-02-19T03:41:13.328Z,13.76
2023-02-19T03:42:13.531Z,31.76
2023-02-19T03:43:13.456Z,33.40
2023-02-19T03:44:13.528Z,23.84
2023-02-19T03:45:13.543Z,24.44
2023-02-19T03:46:13.589Z,25.56
2023-02-19T03:47:13.839Z,18.20
2023-02-19T03:48:13.921Z,22.20
2023-02-19T03:49:12.886Z,16.76
2023-02-19T03:50:12.748Z,16.00
2023-02-19T03:51:13.615Z,27.80
2023-02-19T03:52:13.643Z,25.08
2023-02-19T03:53:13.459Z,21.44
2023-02-19T03:54:13.582Z,16.36
2023-02-19T03:55:13.469Z,14.09
2023-02-19T03:56:13.701Z,29.32
2023-02-19T03:57:13.668Z,23.28
2023-02-19T03:58:13.658Z,24.40
2023-02-19T03:59:13.807Z,29.52
2023-02-19T04:00:13.667Z,29.40
2023-02-19T04:01:13.721Z,32.56
2023-02-19T04:02:13.943Z,36.32
2023-02-19T04:03:13.073Z,36.28
2023-02-19T04:04:12.920Z,23.04
2023-02-19T04:05:14.205Z,17.88
2023-02-19T04:06:13.257Z,16.32
2023-02-19T04:07:13.191Z,46.76
2023-02-19T04:08:13.134Z,26.32
2023-02-19T04:09:13.096Z,15.16
2023-02-19T04:10:13.073Z,12.36
2023-02-19T04:11:13.098Z,15.00
2023-02-19T04:12:13.107Z,15.88
2023-02-19T04:13:13.169Z,16.36
2023-02-19T04:14:13.435Z,16.28
2023-02-19T04:15:13.725Z,18.80
2023-02-19T04:16:13.699Z,11.76
2023-02-19T04:17:13.698Z,9.04
2023-02-19T04:18:14.177Z,15.36
2023-02-19T04:19:13.059Z,13.08
2023-02-19T04:20:13.227Z,21.76
2023-02-19T04:21:13.465Z,22.08
2023-02-19T04:22:13.487Z,19.04
2023-02-19T04:23:13.437Z,16.36
2023-02-19T04:24:13.331Z,23.00
2023-02-19T04:25:13.440Z,20.60
2023-02-19T04:26:13.515Z,17.40
2023-02-19T04:27:13.575Z,15.72
2023-02-19T04:28:13.522Z,18.28
2023-02-19T04:29:13.588Z,17.36
2023-02-19T04:30:13.601Z,9.76
2023-02-19T04:31:14.124Z,17.92
2023-02-19T04:32:13.723Z,25.80
2023-02-19T04:33:13.772Z,20.12
2023-02-19T04:34:13.633Z,18.56
2023-02-19T04:35:13.560Z,16.96
2023-02-19T04:36:13.752Z,17.52
2023-02-19T04:37:13.719Z,24.28
2023-02-19T04:38:14.178Z,36.16
2023-02-19T04:39:13.175Z,27.32
2023-02-19T04:40:13.098Z,34.16
2023-02-19T04:41:13.349Z,18.12
2023-02-19T04:42:13.701Z,30.88
2023-02-19T04:43:13.891Z,27.80
2023-02-19T04:44:12.817Z,19.28
2023-02-19T04:45:13.705Z,21.60
2023-02-19T04:46:13.873Z,22.04
2023-02-19T04:47:12.820Z,21.24
2023-02-19T04:48:13.649Z,13.52
2023-02-19T04:49:13.796Z,16.12
2023-02-19T04:50:14.873Z,15.68
2023-02-19T04:51:15.503Z,19.12
2023-02-19T04:52:13.960Z,18.52
2023-02-19T04:53:13.125Z,13.92
2023-02-19T04:54:13.088Z,13.76
2023-02-19T04:55:13.009Z,23.20
2023-02-19T04:56:12.939Z,21.00
2023-02-19T04:57:12.827Z,15.36
2023-02-19T04:58:14.038Z,19.24
2023-02-19T04:59:13.336Z,11.88
2023-02-19T05:00:13.288Z,17.32
2023-02-19T05:01:13.913Z,13.96
2023-02-19T05:02:13.332Z,13.76
2023-02-19T05:03:13.507Z,12.44
2023-02-19T05:04:13.675Z,19.08
2023-02-19T05:05:13.887Z,16.20
2023-02-19T05:06:13.241Z,28.76
2023-02-19T05:07:13.229Z,20.64
2023-02-19T05:08:13.134Z,10.76
2023-02-19T05:09:13.128Z,8.40
2023-02-19T05:10:13.112Z,12.36
2023-02-19T05:11:13.563Z,16.24
2023-02-19T05:12:13.951Z,14.36
2023-02-19T05:13:12.945Z,11.04
2023-02-19T05:14:12.967Z,8.44
2023-02-19T05:15:13.180Z,17.12
2023-02-19T05:16:13.630Z,11.88
2023-02-19T05:17:13.835Z,10.40
2023-02-19T05:18:13.803Z,18.20
2023-02-19T05:19:13.758Z,19.44
2023-02-19T05:20:13.686Z,15.04
2023-02-19T05:21:13.747Z,15.36
2023-02-19T05:22:13.800Z,24.88
2023-02-19T05:23:13.758Z,11.60
2023-02-19T05:24:13.937Z,17.92
2023-02-19T05:25:12.904Z,10.84
2023-02-19T05:26:12.918Z,16.68
2023-02-19T05:27:12.785Z,13.08
2023-02-19T05:28:13.843Z,7.52
2023-02-19T05:29:14.089Z,7.08
2023-02-19T05:30:13.331Z,9.16
2023-02-19T05:31:14.148Z,5.72
2023-02-19T05:32:13.335Z,14.32
2023-02-19T05:33:13.256Z,17.12
2023-02-19T05:34:13.205Z,12.48
2023-02-19T05:35:13.138Z,14.88
2023-02-19T05:36:13.140Z,13.36
2023-02-19T05:37:13.153Z,17.68
2023-02-19T05:38:13.099Z,18.72
2023-02-19T05:39:13.102Z,12.00
2023-02-19T05:40:13.402Z,13.72
2023-02-19T05:41:13.426Z,15.28
2023-02-19T05:42:13.381Z,7.44
2023-02-19T05:43:13.657Z,15.52
2023-02-19T05:44:13.577Z,12.72
2023-02-19T05:45:13.799Z,12.40
2023-02-19T05:46:13.690Z,17.00
2023-02-19T05:47:13.830Z,11.45
2023-02-19T05:48:13.973Z,10.40
2023-02-19T05:49:13.171Z,16.96
2023-02-19T05:50:13.277Z,10.68
2023-02-19T05:51:13.362Z,11.92
2023-02-19T05:52:13.335Z,20.47
2023-02-19T05:53:13.447Z,15.24
2023-02-19T05:55:13.695Z,16.36
2023-02-19T05:56:13.618Z,12.76
2023-02-19T05:57:13.596Z,15.56
2023-02-19T05:58:13.554Z,15.88
2023-02-19T05:59:27.294Z,10.08
2023-02-19T06:00:21.571Z,10.08
2023-02-19T06:01:19.272Z,10.13
2023-02-19T06:02:18.835Z,7.40
2023-02-19T06:03:13.923Z,10.16
2023-02-19T06:04:16.401Z,15.24
2023-02-19T06:05:13.485Z,15.12
2023-02-19T06:06:13.656Z,16.68
2023-02-19T06:07:47.371Z,12.72
2023-02-19T06:08:13.674Z,12.72
2023-02-19T06:09:14.131Z,18.34
2023-02-19T06:10:13.066Z,21.52
2023-02-19T06:11:13.154Z,9.64
2023-02-19T06:12:13.195Z,13.00
2023-02-19T06:13:13.244Z,13.96
2023-02-19T06:14:19.229Z,10.56
2023-02-19T06:15:13.271Z,12.00
2023-02-19T06:16:15.032Z,11.28
2023-02-19T06:17:13.424Z,10.44
2023-02-19T06:18:13.326Z,7.10
2023-02-19T06:19:13.298Z,9.40
2023-02-19T06:20:13.503Z,6.92
2023-02-19T06:21:13.723Z,3.84
2023-02-19T06:22:13.750Z,12.20
2023-02-19T06:23:13.735Z,17.24
2023-02-19T06:24:13.653Z,16.28
2023-02-19T06:25:13.459Z,10.76
2023-02-19T06:26:13.550Z,15.04
2023-02-19T06:27:13.819Z,14.45
2023-02-19T06:28:13.841Z,10.12
2023-02-19T06:29:13.712Z,11.68
2023-02-19T06:30:13.840Z,8.44
2023-02-19T06:31:14.155Z,9.80
2023-02-19T06:32:13.617Z,12.28
2023-02-19T06:33:13.482Z,5.44
2023-02-19T06:34:13.730Z,12.24
2023-02-19T06:35:13.681Z,10.32
2023-02-19T06:37:13.669Z,9.76
2023-02-19T06:40:13.388Z,24.24
2023-02-19T06:42:13.246Z,17.52
2023-02-19T06:43:26.155Z,19.56
2023-02-19T06:44:14.012Z,15.08
2023-02-19T06:45:33.697Z,12.00
2023-02-19T06:46:14.113Z,18.60
2023-02-19T06:47:13.645Z,13.87
2023-02-19T06:48:18.717Z,12.88
2023-02-19T06:49:42.192Z,14.64
2023-02-19T06:50:18.160Z,12.48
2023-02-19T06:51:13.240Z,13.68
2023-02-19T06:52:13.243Z,8.96
2023-02-19T06:53:13.573Z,15.12
2023-02-19T06:54:13.554Z,13.30
2023-02-19T06:55:13.614Z,18.04
2023-02-19T06:56:13.650Z,11.12
2023-02-19T06:57:13.669Z,18.88
2023-02-19T06:58:13.959Z,15.96
2023-02-19T06:59:13.022Z,11.32
2023-02-19T07:00:13.353Z,24.96
2023-02-19T07:01:13.881Z,9.76
2023-02-19T07:02:14.376Z,6.48
2023-02-19T07:03:13.650Z,9.36
2023-02-19T07:04:13.858Z,16.76
2023-02-19T07:05:13.936Z,12.92
2023-02-19T07:06:13.286Z,9.68
2023-02-19T07:07:13.225Z,7.20
2023-02-19T07:08:13.198Z,6.52
2023-02-19T07:09:13.054Z,9.72
2023-02-19T07:10:13.161Z,10.28
2023-02-19T07:11:13.349Z,15.72
2023-02-19T07:12:13.637Z,13.34
2023-02-19T07:13:13.650Z,14.68
2023-02-19T07:14:13.719Z,11.08
2023-02-19T07:15:13.626Z,10.96
2023-02-19T07:16:13.605Z,9.16
2023-02-19T07:17:13.724Z,12.00
2023-02-19T07:18:13.643Z,10.00
2023-02-19T07:19:13.553Z,7.48
2023-02-19T07:20:13.489Z,9.80
2023-02-19T07:21:13.936Z,13.36
2023-02-19T07:22:12.987Z,9.16
2023-02-19T07:23:12.946Z,13.20
2023-02-19T07:24:13.037Z,9.68
2023-02-19T07:25:12.880Z,18.80
2023-02-19T07:26:13.938Z,13.00
2023-02-19T07:27:13.237Z,14.20
2023-02-19T07:28:13.242Z,11.32
2023-02-19T07:29:13.214Z,14.80
2023-02-19T07:30:13.169Z,11.60
2023-02-19T07:31:13.719Z,15.32
2023-02-19T07:32:12.923Z,16.24
2023-02-19T07:33:12.989Z,16.56
2023-02-19T07:34:13.025Z,12.24
2023-02-19T07:35:13.002Z,14.96
2023-02-19T07:36:13.089Z,13.76
2023-02-19T07:37:13.331Z,8.84
2023-02-19T07:38:13.305Z,12.44
2023-02-19T07:39:13.683Z,11.08
2023-02-19T07:40:13.647Z,7.20
2023-02-19T07:41:14.510Z,7.36
2023-02-19T07:42:13.577Z,9.92
2023-02-19T07:43:13.662Z,12.48
2023-02-19T07:44:13.588Z,16.08
2023-02-19T07:45:13.690Z,21.84
2023-02-19T07:46:13.563Z,14.84
2023-02-19T07:47:13.409Z,14.56
2023-02-19T07:49:13.088Z,6.96
2023-02-19T07:50:14.049Z,3.64
2023-02-19T07:51:45.450Z,4.56
2023-02-19T07:52:15.086Z,7.64
2023-02-19T07:53:12.968Z,13.84
2023-02-19T07:54:12.982Z,9.84
2023-02-19T07:55:13.259Z,17.72
2023-02-19T07:56:13.644Z,17.44
2023-02-19T07:57:13.987Z,24.24
2023-02-19T07:58:32.962Z,7.68
2023-02-19T07:59:13.476Z,16.88
2023-02-19T08:00:13.464Z,9.40
2023-02-19T08:01:14.119Z,15.48
2023-02-19T08:02:13.312Z,13.80
2023-02-19T08:03:13.343Z,8.40
2023-02-19T08:04:13.627Z,9.00
2023-02-19T08:05:18.739Z,24.72
2023-02-19T08:06:13.900Z,19.64
2023-02-19T08:07:13.093Z,10.72
2023-02-19T08:08:13.078Z,13.16
2023-02-19T08:09:14.348Z,15.53
2023-02-19T08:10:13.452Z,10.48
2023-02-19T08:11:13.516Z,10.48
2023-02-19T08:12:13.415Z,10.56
2023-02-19T08:13:13.486Z,8.44
2023-02-19T08:14:18.445Z,9.92
2023-02-19T08:15:23.505Z,5.58
2023-02-19T08:16:20.146Z,9.36
2023-02-19T08:17:13.397Z,29.04
2023-02-19T08:19:13.767Z,9.56
2023-02-19T08:20:14.103Z,17.16
2023-02-19T08:21:13.052Z,14.32
2023-02-19T08:22:13.186Z,12.00
2023-02-19T08:23:13.129Z,15.00
2023-02-19T08:24:13.302Z,11.44
2023-02-19T08:25:13.264Z,13.96
2023-02-19T08:26:13.175Z,17.04
2023-02-19T08:27:13.445Z,19.92
2023-02-19T08:28:13.697Z,22.44
2023-02-19T08:29:13.823Z,16.08
2023-02-19T08:30:14.059Z,14.36
2023-02-19T08:31:13.321Z,18.96
2023-02-19T08:32:13.568Z,10.56
2023-02-19T08:33:13.426Z,14.44
2023-02-19T08:34:13.370Z,22.36
2023-02-19T08:35:13.729Z,15.44
2023-02-19T08:36:13.960Z,18.04
2023-02-19T08:37:12.871Z,9.92
2023-02-19T08:38:14.162Z,8.80
2023-02-19T08:39:13.126Z,33.28
2023-02-19T08:40:13.389Z,31.92
2023-02-19T08:41:13.790Z,33.40
2023-02-19T08:42:13.035Z,10.96
2023-02-19T08:43:13.104Z,16.80
2023-02-19T08:44:13.105Z,22.76
2023-02-19T08:45:13.236Z,23.12
2023-02-19T08:46:13.341Z,23.72
2023-02-19T08:47:13.420Z,13.28
2023-02-19T08:48:13.589Z,26.12
2023-02-19T08:49:13.699Z,15.48
2023-02-19T08:50:13.625Z,20.56
2023-02-19T08:51:14.616Z,20.32
2023-02-19T08:52:13.929Z,9.36
2023-02-19T08:53:13.679Z,15.40
2023-02-19T08:54:14.900Z,9.88
2023-02-19T08:55:18.025Z,14.12
2023-02-19T08:56:13.018Z,20.08
2023-02-19T08:57:13.153Z,22.40
2023-02-19T08:58:13.069Z,14.76
2023-02-19T08:59:13.127Z,16.28
2023-02-19T09:00:13.418Z,17.56
2023-02-19T09:01:14.242Z,17.04
2023-02-19T09:02:13.394Z,23.08
2023-02-19T09:03:13.384Z,22.16
2023-02-19T09:04:13.590Z,14.36
2023-02-19T09:05:13.586Z,15.32
2023-02-19T09:06:14.068Z,12.60
2023-02-19T09:07:13.175Z,7.64
2023-02-19T09:08:13.125Z,13.12
2023-02-19T09:09:13.220Z,15.40
2023-02-19T09:10:13.161Z,12.44
2023-02-19T09:11:13.685Z,18.96
2023-02-19T09:12:13.751Z,12.76
2023-02-19T09:13:13.222Z,12.04
2023-02-19T09:14:13.461Z,15.28
2023-02-19T09:15:13.367Z,15.28
2023-02-19T09:16:13.267Z,15.32
2023-02-19T09:17:13.252Z,15.68
2023-02-19T09:18:13.327Z,25.40
2023-02-19T09:19:13.541Z,18.68
2023-02-19T09:20:13.513Z,11.00
2023-02-19T09:21:13.934Z,7.56
2023-02-19T09:22:13.230Z,8.36
2023-02-19T09:23:13.284Z,6.76
2023-02-19T09:24:13.240Z,14.32
2023-02-19T09:25:13.220Z,12.72
2023-02-19T09:26:13.425Z,24.92
2023-02-19T09:27:13.387Z,15.00
2023-02-19T09:28:13.333Z,19.12
2023-02-19T09:29:13.628Z,19.76
2023-02-19T09:30:13.638Z,20.16
2023-02-19T09:31:14.174Z,21.48
2023-02-19T09:32:14.243Z,22.56
2023-02-19T09:33:13.277Z,15.72
2023-02-19T09:34:14.353Z,9.80
2023-02-19T09:35:13.422Z,13.64
2023-02-19T09:36:13.370Z,17.24
2023-02-19T09:37:13.638Z,12.64
2023-02-19T09:38:13.667Z,8.20
2023-02-19T09:39:13.662Z,11.72
2023-02-19T09:40:35.387Z,14.96
2023-02-19T09:42:13.167Z,17.44
2023-02-19T09:43:13.095Z,14.00
2023-02-19T09:44:18.381Z,10.56
2023-02-19T09:45:14.131Z,10.00
2023-02-19T09:46:19.456Z,19.00
2023-02-19T09:47:13.784Z,12.80
2023-02-19T09:48:20.948Z,13.10
2023-02-19T09:49:13.167Z,16.80
2023-02-19T09:50:13.169Z,7.40
2023-02-19T09:51:13.227Z,15.88
2023-02-19T09:52:13.179Z,15.16
2023-02-19T09:53:16.319Z,7.80
2023-02-19T09:54:13.659Z,11.42
2023-02-19T09:55:13.687Z,13.20
2023-02-19T09:56:15.134Z,13.76
2023-02-19T09:57:18.301Z,17.28
2023-02-19T09:58:14.112Z,25.52
2023-02-19T09:59:13.001Z,16.84
2023-02-19T10:00:12.865Z,17.88
2023-02-19T10:01:14.317Z,15.92
2023-02-19T10:02:14.039Z,12.48
2023-02-19T10:03:13.012Z,13.96
2023-02-19T10:04:13.014Z,16.28
2023-02-19T10:05:13.149Z,15.92
2023-02-19T10:06:13.167Z,6.64
2023-02-19T10:07:13.694Z,9.84
2023-02-19T10:08:13.726Z,9.48
2023-02-19T10:09:13.762Z,15.20
2023-02-19T10:10:13.720Z,20.48
2023-02-19T10:11:14.025Z,14.24
2023-02-19T10:12:13.430Z,14.60
2023-02-19T10:13:13.524Z,26.84
2023-02-19T10:14:13.612Z,14.56
2023-02-19T10:15:13.648Z,11.08
2023-02-19T10:16:13.870Z,9.40
2023-02-19T10:17:13.821Z,7.12
2023-02-19T10:18:13.766Z,8.84
2023-02-19T10:19:13.823Z,17.84
2023-02-19T10:20:14.109Z,28.08
2023-02-19T10:21:15.338Z,13.24
2023-02-19T10:22:13.226Z,30.28
2023-02-19T10:23:13.244Z,29.28
2023-02-19T10:24:13.081Z,13.40
2023-02-19T10:25:13.236Z,9.84
2023-02-19T10:26:13.607Z,22.60
2023-02-19T10:27:13.785Z,19.80
2023-02-19T10:28:13.670Z,14.52
2023-02-19T10:29:13.707Z,20.12
2023-02-19T10:30:13.926Z,12.56
2023-02-19T10:31:13.671Z,10.40
2023-02-19T10:32:12.967Z,19.84
2023-02-19T10:33:12.889Z,19.20
2023-02-19T10:34:12.755Z,30.56
2023-02-19T10:35:13.887Z,20.00
2023-02-19T10:36:13.160Z,16.60
2023-02-19T10:37:13.038Z,11.00
2023-02-19T10:38:12.973Z,21.20
2023-02-19T10:39:12.869Z,12.76
2023-02-19T10:40:13.765Z,20.00
2023-02-19T10:41:13.681Z,14.24
2023-02-19T10:42:13.669Z,18.72
2023-02-19T10:43:13.718Z,19.16
2023-02-19T10:44:13.593Z,16.72
2023-02-19T10:45:14.014Z,10.84
2023-02-19T10:46:13.288Z,19.24
2023-02-19T10:47:13.590Z,21.20
2023-02-19T10:48:13.579Z,15.12
2023-02-19T10:49:13.503Z,10.88
2023-02-19T10:50:13.389Z,15.20
2023-02-19T10:51:13.535Z,16.00
2023-02-19T10:52:13.663Z,16.56
2023-02-19T10:53:14.011Z,20.48
2023-02-19T10:54:12.922Z,19.24
2023-02-19T10:55:12.941Z,30.36
2023-02-19T10:56:17.952Z,24.64
2023-02-19T10:57:12.910Z,19.44
2023-02-19T10:58:12.799Z,19.68
2023-02-19T10:59:13.706Z,15.88
2023-02-19T11:00:13.633Z,9.12
2023-02-19T11:01:13.551Z,10.36
2023-02-19T11:02:13.450Z,14.20
2023-02-19T11:03:13.567Z,15.44
2023-02-19T11:04:13.560Z,14.56
2023-02-19T11:05:13.731Z,18.24
2023-02-19T11:06:14.068Z,16.08
2023-02-19T11:07:14.055Z,28.08
2023-02-19T11:08:12.976Z,22.22
2023-02-19T11:09:13.213Z,12.16
2023-02-19T11:10:13.365Z,16.76
2023-02-19T11:11:13.396Z,8.92
2023-02-19T11:12:13.460Z,15.48
2023-02-19T11:13:13.515Z,15.28
2023-02-19T11:14:13.529Z,17.72
2023-02-19T11:15:13.448Z,12.24
2023-02-19T11:16:13.395Z,13.88
2023-02-19T11:17:13.492Z,5.84
2023-02-19T11:18:13.620Z,9.60
2023-02-19T11:19:14.040Z,6.72
2023-02-19T11:20:12.887Z,8.80
2023-02-19T11:21:13.845Z,10.56
2023-02-19T11:22:14.064Z,8.68
2023-02-19T11:23:12.932Z,11.08
2023-02-19T11:24:12.822Z,7.88
2023-02-19T11:25:13.980Z,12.44
2023-02-19T11:26:12.930Z,8.40
2023-02-19T11:27:12.929Z,11.52
2023-02-19T11:28:12.910Z,9.72
2023-02-19T11:29:12.993Z,11.32
2023-02-19T11:30:13.217Z,9.20
2023-02-19T11:31:13.745Z,17.40
2023-02-19T11:32:18.422Z,10.64
2023-02-19T11:33:13.522Z,14.00
2023-02-19T11:34:13.539Z,9.92
2023-02-19T11:35:13.593Z,8.20
2023-02-19T11:36:14.191Z,8.08
2023-02-19T11:37:13.358Z,11.88
2023-02-19T11:38:13.370Z,14.88
2023-02-19T11:39:13.310Z,12.56
2023-02-19T11:40:13.293Z,10.16
2023-02-19T11:41:13.590Z,12.44
2023-02-19T11:42:13.578Z,11.64
2023-02-19T11:43:13.719Z,11.36
2023-02-19T11:44:14.087Z,13.84
2023-02-19T11:45:13.108Z,15.24
2023-02-19T11:46:13.120Z,15.72
2023-02-19T11:47:13.142Z,17.00
2023-02-19T11:48:12.950Z,10.92
2023-02-19T11:49:13.044Z,11.60
2023-02-19T11:50:13.221Z,20.84
2023-02-19T11:51:13.643Z,19.84
2023-02-19T11:52:13.584Z,18.84
2023-02-19T11:53:13.765Z,14.44
2023-02-19T11:54:13.639Z,17.76
2023-02-19T11:55:13.662Z,14.44
2023-02-19T11:56:13.716Z,11.12
2023-02-19T11:57:14.256Z,23.08
2023-02-19T11:58:13.435Z,16.00
2023-02-19T11:59:13.522Z,13.72
2023-02-19T12:00:13.640Z,17.24
2023-02-19T12:01:13.781Z,11.56
2023-02-19T12:02:13.810Z,13.88
2023-02-19T12:03:13.904Z,13.24
2023-02-19T12:04:12.934Z,8.44
2023-02-19T12:05:13.148Z,6.28
2023-02-19T12:06:13.651Z,3.68
2023-02-19T12:07:13.673Z,15.04
2023-02-19T12:08:13.741Z,11.00
2023-02-19T12:09:13.673Z,9.24
2023-02-19T12:10:13.747Z,8.64
2023-02-19T12:11:14.234Z,15.92
2023-02-19T12:12:15.000Z,9.40
2023-02-19T12:13:13.520Z,9.56
2023-02-19T12:14:13.878Z,3.72
2023-02-19T12:15:13.847Z,10.48
2023-02-19T12:16:13.698Z,10.44
2023-02-19T12:17:13.779Z,14.04
2023-02-19T12:18:13.610Z,6.96
2023-02-19T12:19:13.639Z,27.32
2023-02-19T12:20:13.925Z,9.44
2023-02-19T12:21:13.315Z,8.32
2023-02-19T12:22:13.705Z,12.24
2023-02-19T12:23:13.830Z,11.48
2023-02-19T12:24:14.569Z,10.44
2023-02-19T12:25:13.541Z,11.76
2023-02-19T12:26:13.653Z,12.67
2023-02-19T12:27:14.046Z,13.56
2023-02-19T12:28:13.443Z,8.84
2023-02-19T12:29:15.400Z,7.68
2023-02-19T12:30:13.746Z,14.52
2023-02-19T12:31:13.181Z,17.12
2023-02-19T12:32:18.158Z,21.84
2023-02-19T12:33:13.774Z,14.28
2023-02-19T12:34:13.795Z,5.96
2023-02-19T12:35:13.643Z,8.64
2023-02-19T12:36:13.871Z,15.08
2023-02-19T12:37:12.857Z,6.60
2023-02-19T12:38:13.823Z,14.96
2023-02-19T12:39:13.984Z,15.88
2023-02-19T12:40:13.048Z,8.24
2023-02-19T12:41:13.271Z,2.48
2023-02-19T12:42:13.484Z,3.40
2023-02-19T12:43:13.516Z,11.40
2023-02-19T12:44:13.602Z,15.40
2023-02-19T12:45:13.522Z,8.16
2023-02-19T12:46:14.001Z,7.40
2023-02-19T12:47:13.146Z,9.96
2023-02-19T12:48:14.764Z,11.44
2023-02-19T12:49:14.164Z,7.40
2023-02-19T12:50:13.001Z,13.08
2023-02-19T12:51:21.721Z,12.48
2023-02-19T12:53:13.307Z,9.24
2023-02-19T12:54:13.213Z,6.44
2023-02-19T12:55:13.176Z,6.40
2023-02-19T12:56:13.315Z,4.60
2023-02-19T12:57:13.431Z,11.24
2023-02-19T12:58:13.314Z,8.24
2023-02-19T12:59:13.531Z,12.12
2023-02-19T13:00:13.558Z,10.88
2023-02-19T13:01:13.773Z,15.56
2023-02-19T13:02:13.758Z,16.08
2023-02-19T13:03:13.643Z,25.60
2023-02-19T13:04:13.630Z,16.36
2023-02-19T13:05:13.728Z,17.32